Portada
METAR-TAF:

METAR-TAF

Aeroports :

Burlington, Vermont, Estats Units d'Amèrica

latitud: 44-28-05N, longitud: 073-09-01W, altitud: 101 m

Observació

L'informe es va fer fa 36 minuts, a les 17:54 UTC
Vent 7 kt del Sud/Sud-Oest
Temperatura 31°C
Humitat 40%
Pressió 1019 hPa
Visibilitat: 16.1 km
Escasses núvols a una alçada de 7500 ft
Escasses núvols a una alçada de 12000 ft

METAR: KBTV 261754Z 20007KT 10SM FEW075 FEW120 31/16 A3010 RMK AO2 SLP192 ACSL SE-NW T03110161 10311 20217 58012

Hora: 14:30 (18:30 UTC)

Pronòstic

L'informe es va fer fa 1 hora i 10 minuts, a les 17:20 UTC
Pronòstic vàlid del 26 a les 18 UTC al 27 a les 18 UTC
Vent 10 kt del Sud/Sud-Oest
Visibilitat: 10 km
Escasses núvols a una alçada de 18000 ft
A partir de les 27 a les 0000 UTC
Vent 6 kt del Sud
Visibilitat: 10 km
Escasses núvols a una alçada de 15000 ft

TAF: KBTV 261720Z 2618/2718 20010KT P6SM FEW180 FM270000 18006KT P6SM FEW150

Observacions i pronòstics meteorològics de més de 4000 aeroports (METAR i TAF).

Les estacions disponibles són els punts grocs i vermells al mapa.

Posi el ratolí al punt desitjat per veure el nom de l'estació.

Feu clic per veure les observacions i els pronòstics meteorològics.

Per canviar el mapa: feu clic els botons verds amb una creu de color negre per apropar; al botó verd amb un guió per allunyar la imatge; o en les fletxes verdes per a mapes adjacents.


METAR-TAF: